Time;durP1;ratioP1;P1;durP2;ratioP2;P2;SDS_P1;SDS_P2;PMS_P1;PMS_P2;Temp;Humidity;BMP_temperature;BMP_pressure;BME280_temperature;BME280_humidity;BME280_pressure;Samples;Min_cycle;Max_cycle;Signal;HPM_P1;HPM_P2
2021/10/27 00:00:30;;;;;;;23.93;17.57;;;;;;;;;;6211250;23;20363;-75
2021/10/27 00:02:55;;;;;;;24.73;17.87;;;;;;;;;;6211339;23;20144;-74
2021/10/27 00:05:21;;;;;;;30.97;19.00;;;;;;;;;;6200705;23;20195;-75
2021/10/27 00:07:46;;;;;;;29.50;20.57;;;;;;;;;;6212362;23;20146;-75
2021/10/27 00:10:12;;;;;;;29.20;19.20;;;;;;;;;;6211961;23;20143;-75
2021/10/27 00:12:37;;;;;;;28.33;19.43;;;;;;;;;;6212195;23;20175;-74
2021/10/27 00:15:03;;;;;;;28.50;19.90;;;;;;;;;;6211843;23;20628;-74
2021/10/27 00:17:29;;;;;;;24.73;19.07;;;;;;;;;;6211532;23;20147;-74
2021/10/27 00:19:54;;;;;;;26.10;20.50;;;;;;;;;;6212206;23;20362;-75
2021/10/27 00:22:20;;;;;;;27.97;18.97;;;;;;;;;;6211398;23;20162;-74
2021/10/27 00:24:46;;;;;;;30.53;19.97;;;;;;;;;;6210736;23;20187;-75
2021/10/27 00:27:11;;;;;;;30.50;20.67;;;;;;;;;;6212112;23;20371;-75
2021/10/27 00:29:36;;;;;;;28.47;19.90;;;;;;;;;;6211719;23;20543;-75
2021/10/27 00:32:02;;;;;;;25.47;20.07;;;;;;;;;;6212306;23;20171;-74
2021/10/27 00:34:28;;;;;;;29.33;20.20;;;;;;;;;;6211324;23;20183;-75
2021/10/27 00:36:53;;;;;;;35.57;20.73;;;;;;;;;;6212400;23;20176;-75
2021/10/27 00:39:18;;;;;;;32.37;19.50;;;;;;;;;;6211877;23;20367;-74
2021/10/27 00:41:43;;;;;;;30.50;20.03;;;;;;;;;;6211176;23;20147;-75
2021/10/27 00:44:22;;;;;;;22.43;19.60;;;;;;;;;;6211402;23;20187;-74
2021/10/27 00:46:47;;;;;;;32.47;20.67;;;;;;;;;;6211604;23;20171;-75
2021/10/27 00:49:13;;;;;;;35.40;19.50;;;;;;;;;;6211445;23;20731;-74
2021/10/27 00:51:38;;;;;;;27.27;19.67;;;;;;;;;;6211657;23;20140;-74
2021/10/27 00:54:03;;;;;;;29.13;19.70;;;;;;;;;;6211140;23;20171;-75
2021/10/27 00:56:29;;;;;;;26.57;18.23;;;;;;;;;;6211386;23;20144;-75
2021/10/27 00:58:54;;;;;;;27.27;18.80;;;;;;;;;;6211351;23;20171;-75
2021/10/27 01:01:20;;;;;;;27.87;20.23;;;;;;;;;;6209321;23;20155;-75
2021/10/27 01:03:45;;;;;;;25.97;17.83;;;;;;;;;;6210341;23;20167;-74
2021/10/27 01:06:11;;;;;;;27.37;20.13;;;;;;;;;;6211522;23;20140;-75
2021/10/27 01:08:36;;;;;;;26.50;19.77;;;;;;;;;;6211176;23;20226;-75
2021/10/27 01:11:03;;;;;;;27.47;19.13;;;;;;;;;;6211707;23;20587;-75
2021/10/27 01:13:28;;;;;;;24.03;17.93;;;;;;;;;;6184601;23;20164;-74
2021/10/27 01:15:53;;;;;;;33.13;18.77;;;;;;;;;;6210817;23;20732;-74
2021/10/27 01:18:19;;;;;;;25.80;18.50;;;;;;;;;;6211558;23;20478;-75
2021/10/27 01:20:46;;;;;;;24.73;17.40;;;;;;;;;;6211739;23;20159;-74
2021/10/27 01:23:11;;;;;;;25.20;18.37;;;;;;;;;;6213153;23;20148;-75
2021/10/27 01:25:36;;;;;;;27.43;18.80;;;;;;;;;;6213757;23;20474;-75
2021/10/27 01:28:02;;;;;;;31.23;19.80;;;;;;;;;;6212564;23;20151;-75
2021/10/27 01:30:27;;;;;;;32.37;17.23;;;;;;;;;;6212813;23;20144;-75
2021/10/27 01:32:53;;;;;;;27.43;18.37;;;;;;;;;;6213570;23;20137;-74
2021/10/27 01:35:18;;;;;;;25.30;16.23;;;;;;;;;;6212219;23;20263;-75
2021/10/27 01:37:44;;;;;;;32.00;17.10;;;;;;;;;;6213647;23;20223;-74
2021/10/27 01:40:13;;;;;;;26.23;17.47;;;;;;;;;;6210281;23;20148;-74
2021/10/27 01:42:39;;;;;;;27.63;18.67;;;;;;;;;;6213025;23;20250;-74
2021/10/27 01:45:05;;;;;;;26.27;16.60;;;;;;;;;;6212774;23;20951;-74
2021/10/27 01:47:30;;;;;;;32.40;17.23;;;;;;;;;;6213426;23;20148;-75
2021/10/27 01:49:55;;;;;;;23.47;16.30;;;;;;;;;;6212465;23;20151;-75
2021/10/27 01:52:20;;;;;;;20.33;14.30;;;;;;;;;;6212670;23;20194;-75
2021/10/27 01:54:46;;;;;;;23.53;13.63;;;;;;;;;;6212844;23;20234;-74
2021/10/27 01:57:11;;;;;;;21.47;14.80;;;;;;;;;;6213548;23;20151;-75
2021/10/27 01:59:37;;;;;;;28.47;14.73;;;;;;;;;;6212898;23;20223;-75
2021/10/27 02:02:02;;;;;;;20.97;14.60;;;;;;;;;;6186825;23;20820;-75
2021/10/27 02:04:28;;;;;;;21.63;13.17;;;;;;;;;;6212435;23;20183;-75
2021/10/27 02:06:53;;;;;;;23.80;13.73;;;;;;;;;;6212706;23;20159;-75
2021/10/27 02:09:18;;;;;;;22.73;11.73;;;;;;;;;;6212611;23;20163;-74
2021/10/27 02:11:43;;;;;;;17.63;12.10;;;;;;;;;;6211996;23;20151;-74
2021/10/27 02:14:09;;;;;;;21.47;13.00;;;;;;;;;;6213203;23;20172;-75
2021/10/27 02:16:34;;;;;;;20.10;12.10;;;;;;;;;;6212688;23;20204;-74
2021/10/27 02:19:00;;;;;;;24.90;11.87;;;;;;;;;;6211618;23;20193;-75
2021/10/27 02:21:25;;;;;;;20.97;12.00;;;;;;;;;;6212893;23;20152;-75
2021/10/27 02:23:51;;;;;;;21.47;11.87;;;;;;;;;;6212169;23;20180;-75
2021/10/27 02:26:18;;;;;;;20.27;11.57;;;;;;;;;;6213004;23;20176;-75
2021/10/27 02:28:43;;;;;;;22.63;12.50;;;;;;;;;;6211072;23;20199;-75
2021/10/27 02:31:09;;;;;;;24.97;11.10;;;;;;;;;;6185560;23;20375;-75
2021/10/27 02:33:34;;;;;;;14.70;9.60;;;;;;;;;;6212994;23;20557;-74
2021/10/27 02:35:59;;;;;;;22.10;10.57;;;;;;;;;;6212323;23;20206;-75
2021/10/27 02:38:25;;;;;;;22.80;12.03;;;;;;;;;;6211993;23;20167;-74
2021/10/27 02:40:50;;;;;;;19.90;12.13;;;;;;;;;;6211486;23;20239;-75
2021/10/27 02:43:16;;;;;;;24.83;12.27;;;;;;;;;;6211991;23;20144;-74
2021/10/27 02:45:46;;;;;;;19.60;12.60;;;;;;;;;;6212601;23;20163;-75
2021/10/27 02:48:11;;;;;;;19.67;10.60;;;;;;;;;;6211936;23;20140;-74
2021/10/27 02:50:36;;;;;;;18.90;10.90;;;;;;;;;;6212537;23;20373;-75
2021/10/27 02:53:01;;;;;;;15.40;9.77;;;;;;;;;;6212109;23;20625;-74
2021/10/27 02:55:30;;;;;;;20.37;10.00;;;;;;;;;;6212650;23;20506;-75
2021/10/27 02:57:55;;;;;;;14.43;9.07;;;;;;;;;;6212411;23;20472;-75
2021/10/27 03:00:21;;;;;;;16.20;8.90;;;;;;;;;;6211251;23;20378;-75
2021/10/27 03:02:46;;;;;;;15.60;9.27;;;;;;;;;;6210397;23;20140;-74
2021/10/27 03:05:11;;;;;;;17.27;9.33;;;;;;;;;;6211988;23;20182;-74
2021/10/27 03:07:37;;;;;;;17.50;9.50;;;;;;;;;;6211811;23;20226;-74
2021/10/27 03:10:02;;;;;;;18.80;9.20;;;;;;;;;;6212410;23;20140;-75
2021/10/27 03:12:27;;;;;;;21.63;8.50;;;;;;;;;;6185898;23;20235;-74
2021/10/27 03:14:53;;;;;;;18.00;9.60;;;;;;;;;;6211983;23;20171;-75
2021/10/27 03:17:19;;;;;;;23.00;11.37;;;;;;;;;;6212168;23;20156;-74
2021/10/27 03:19:44;;;;;;;20.93;9.80;;;;;;;;;;6211928;23;20594;-75
2021/10/27 03:22:10;;;;;;;27.03;9.97;;;;;;;;;;6212486;23;20380;-74
2021/10/27 03:24:35;;;;;;;16.00;10.23;;;;;;;;;;6211628;23;20179;-75
2021/10/27 03:27:01;;;;;;;17.30;10.67;;;;;;;;;;6212945;23;20146;-75
2021/10/27 03:29:26;;;;;;;21.90;11.27;;;;;;;;;;6212228;23;20143;-74
2021/10/27 03:31:51;;;;;;;19.87;9.90;;;;;;;;;;6210049;23;20231;-74
2021/10/27 03:34:16;;;;;;;18.83;9.90;;;;;;;;;;6211885;23;20163;-74
2021/10/27 03:36:42;;;;;;;25.37;10.80;;;;;;;;;;6211365;23;20152;-75
2021/10/27 03:39:07;;;;;;;17.40;10.73;;;;;;;;;;6211583;23;20243;-74
2021/10/27 03:41:33;;;;;;;16.77;9.97;;;;;;;;;;6212081;23;20144;-75
2021/10/27 03:43:58;;;;;;;18.43;10.83;;;;;;;;;;6211394;23;20254;-74
2021/10/27 03:46:23;;;;;;;19.60;11.00;;;;;;;;;;6212083;23;20144;-75
2021/10/27 03:48:49;;;;;;;23.10;10.67;;;;;;;;;;6211568;23;20194;-75
2021/10/27 03:51:14;;;;;;;24.43;11.90;;;;;;;;;;6211053;23;20144;-74
2021/10/27 03:53:40;;;;;;;18.33;10.67;;;;;;;;;;6211434;23;20148;-74
2021/10/27 03:56:05;;;;;;;16.17;9.53;;;;;;;;;;6212262;23;20143;-75
2021/10/27 03:58:33;;;;;;;21.57;10.70;;;;;;;;;;6211436;23;20152;-75
2021/10/27 04:00:58;;;;;;;15.70;9.40;;;;;;;;;;6210747;23;20144;-75
2021/10/27 04:03:24;;;;;;;24.50;10.50;;;;;;;;;;6211653;23;20497;-74
2021/10/27 04:05:49;;;;;;;16.07;9.37;;;;;;;;;;6211772;23;20179;-75
2021/10/27 04:08:14;;;;;;;16.80;8.43;;;;;;;;;;6211726;23;20148;-75
2021/10/27 04:10:40;;;;;;;17.03;8.50;;;;;;;;;;6212199;23;20227;-75
2021/10/27 04:13:05;;;;;;;19.63;8.50;;;;;;;;;;6211900;23;20235;-75
2021/10/27 04:15:30;;;;;;;21.63;8.43;;;;;;;;;;6185536;23;20563;-75
2021/10/27 04:17:56;;;;;;;15.50;7.30;;;;;;;;;;6211752;23;20151;-74
2021/10/27 04:20:21;;;;;;;17.73;7.47;;;;;;;;;;6211402;23;20147;-75
2021/10/27 04:22:46;;;;;;;18.07;6.67;;;;;;;;;;6211960;23;20215;-75
2021/10/27 04:25:12;;;;;;;11.67;5.87;;;;;;;;;;6211515;23;20230;-76
2021/10/27 04:27:37;;;;;;;11.50;5.00;;;;;;;;;;6211681;23;20143;-75
2021/10/27 04:30:03;;;;;;;14.50;5.80;;;;;;;;;;6210368;23;20355;-74
2021/10/27 04:32:28;;;;;;;14.17;5.73;;;;;;;;;;6211890;23;20207;-75
2021/10/27 04:34:54;;;;;;;13.00;5.40;;;;;;;;;;6211243;23;20247;-75
2021/10/27 04:37:19;;;;;;;12.87;5.67;;;;;;;;;;6211490;23;20148;-76
2021/10/27 04:39:44;;;;;;;15.10;5.50;;;;;;;;;;6211706;23;20152;-75
2021/10/27 04:42:10;;;;;;;12.53;5.00;;;;;;;;;;6211605;23;20155;-77
2021/10/27 04:44:35;;;;;;;11.87;4.10;;;;;;;;;;6211689;23;20187;-76
2021/10/27 04:47:03;;;;;;;12.07;4.57;;;;;;;;;;6211744;23;20144;-77
2021/10/27 04:49:31;;;;;;;9.80;4.13;;;;;;;;;;6211511;23;20148;-76
2021/10/27 04:51:56;;;;;;;12.70;4.40;;;;;;;;;;6212380;23;20374;-76
2021/10/27 04:54:22;;;;;;;12.80;3.70;;;;;;;;;;6211122;23;20387;-76
2021/10/27 04:56:47;;;;;;;13.23;3.70;;;;;;;;;;6213635;23;20151;-76
2021/10/27 04:59:12;;;;;;;9.37;2.90;;;;;;;;;;6213429;23;20156;-75
2021/10/27 05:01:38;;;;;;;8.17;3.33;;;;;;;;;;6212952;23;20151;-76
2021/10/27 05:04:03;;;;;;;12.23;4.07;;;;;;;;;;6212465;23;20590;-76
2021/10/27 05:06:28;;;;;;;17.40;3.50;;;;;;;;;;6212916;23;20130;-76
2021/10/27 05:08:54;;;;;;;13.87;3.40;;;;;;;;;;6213584;23;20227;-76
2021/10/27 05:11:19;;;;;;;11.90;3.20;;;;;;;;;;6211821;23;20497;-76
2021/10/27 05:13:46;;;;;;;10.93;2.77;;;;;;;;;;6211630;23;20172;-75
2021/10/27 05:16:12;;;;;;;17.13;3.47;;;;;;;;;;6214003;23;20223;-75
2021/10/27 05:18:37;;;;;;;10.20;2.90;;;;;;;;;;6209680;23;20406;-75
2021/10/27 05:21:03;;;;;;;11.53;3.00;;;;;;;;;;6211868;23;20155;-75
2021/10/27 05:23:28;;;;;;;9.33;3.43;;;;;;;;;;6209593;23;20154;-74
2021/10/27 05:25:53;;;;;;;9.93;3.00;;;;;;;;;;6212613;23;20148;-75
2021/10/27 05:28:18;;;;;;;14.13;2.90;;;;;;;;;;6212287;23;20168;-75
2021/10/27 05:30:44;;;;;;;11.50;2.90;;;;;;;;;;6212021;23;20144;-74
2021/10/27 05:33:09;;;;;;;9.60;2.70;;;;;;;;;;6213279;23;20160;-75
2021/10/27 05:35:34;;;;;;;13.53;3.40;;;;;;;;;;6212478;23;20263;-75
2021/10/27 05:37:59;;;;;;;14.17;3.13;;;;;;;;;;6185988;23;20182;-75
2021/10/27 05:40:25;;;;;;;18.77;3.03;;;;;;;;;;6211953;23;20159;-75
2021/10/27 05:42:51;;;;;;;14.30;3.70;;;;;;;;;;6212886;23;20239;-74
2021/10/27 05:45:18;;;;;;;12.03;3.50;;;;;;;;;;6213003;23;20176;-75
2021/10/27 05:47:46;;;;;;;9.43;2.47;;;;;;;;;;6213086;23;20359;-76
2021/10/27 05:50:26;;;;;;;12.43;3.20;;;;;;;;;;6212797;23;20368;-75
2021/10/27 05:55:36;;;;;;;14.53;3.50;;;;;;;;;;6210912;23;20386;-75
2021/10/27 05:58:01;;;;;;;9.23;3.10;;;;;;;;;;6209613;23;20379;-76
2021/10/27 06:00:27;;;;;;;14.47;3.10;;;;;;;;;;6207767;23;20143;-75
2021/10/27 06:02:52;;;;;;;15.87;3.70;;;;;;;;;;6209358;23;20231;-75
2021/10/27 06:05:17;;;;;;;15.13;3.17;;;;;;;;;;6195397;23;20188;-75
2021/10/27 06:07:43;;;;;;;13.30;3.47;;;;;;;;;;6210688;23;20227;-76
2021/10/27 06:10:12;;;;;;;11.10;3.57;;;;;;;;;;6211762;23;20650;-76
2021/10/27 06:12:38;;;;;;;22.13;4.00;;;;;;;;;;6212668;23;20144;-75
2021/10/27 06:15:05;;;;;;;15.63;4.27;;;;;;;;;;6212519;23;20756;-76
2021/10/27 06:17:30;;;;;;;10.97;3.60;;;;;;;;;;6211933;23;20368;-76
2021/10/27 06:19:55;;;;;;;17.60;4.80;;;;;;;;;;6212738;23;20506;-76
2021/10/27 06:22:22;;;;;;;12.27;4.00;;;;;;;;;;6212687;23;20147;-76
2021/10/27 06:24:47;;;;;;;14.63;4.27;;;;;;;;;;6207710;23;20630;-76
2021/10/27 06:27:12;;;;;;;15.00;4.27;;;;;;;;;;6207983;23;20372;-76
2021/10/27 06:29:53;;;;;;;15.90;4.93;;;;;;;;;;6208046;23;20158;-76
2021/10/27 06:32:33;;;;;;;10.20;3.80;;;;;;;;;;6213213;23;20363;-75
2021/10/27 06:35:11;;;;;;;13.80;4.57;;;;;;;;;;6211055;23;20474;-76
2021/10/27 06:37:50;;;;;;;9.93;3.70;;;;;;;;;;6209809;23;20402;-76
2021/10/27 06:48:27;;;;;;;17.63;3.50;;;;;;;;;;6208446;23;20809;-76
2021/10/27 06:50:52;;;;;;;12.60;3.87;;;;;;;;;;6209404;23;20359;-78
2021/10/27 06:53:18;;;;;;;21.23;4.57;;;;;;;;;;6212761;23;20649;-73
2021/10/27 06:55:44;;;;;;;17.63;4.53;;;;;;;;;;6209639;23;20164;-74
2021/10/27 06:58:11;;;;;;;18.97;4.17;;;;;;;;;;6213125;23;20355;-74
2021/10/27 07:00:43;;;;;;;13.77;3.37;;;;;;;;;;6208282;23;20209;-73
2021/10/27 07:03:29;;;;;;;12.57;3.70;;;;;;;;;;6208354;23;20845;-73
2021/10/27 07:06:12;;;;;;;10.70;3.77;;;;;;;;;;6210024;23;20454;-74
2021/10/27 07:16:49;;;;;;;9.50;3.53;;;;;;;;;;6207284;23;20358;-74
2021/10/27 07:19:14;;;;;;;19.20;4.73;;;;;;;;;;6208665;23;20437;-73
2021/10/27 07:21:39;;;;;;;14.07;3.87;;;;;;;;;;6207980;23;20156;-72
2021/10/27 07:24:05;;;;;;;12.43;4.17;;;;;;;;;;6206587;23;20182;-73
2021/10/27 07:26:30;;;;;;;11.67;3.77;;;;;;;;;;6205556;23;20144;-73
2021/10/27 07:28:56;;;;;;;12.43;3.60;;;;;;;;;;6208847;23;20144;-76
2021/10/27 07:31:23;;;;;;;13.50;4.30;;;;;;;;;;6209857;23;20570;-75
2021/10/27 07:34:03;;;;;;;11.70;4.40;;;;;;;;;;6183091;23;20199;-75
2021/10/27 07:39:54;;;;;;;12.60;4.90;;;;;;;;;;6208840;23;20365;-73
2021/10/27 07:42:13;;;;;;;12.40;5.10;;;;;;;;;;6209558;23;20410;-75
2021/10/27 07:44:38;;;;;;;10.97;4.93;;;;;;;;;;6208975;23;20418;-76
2021/10/27 07:47:04;;;;;;;16.30;5.83;;;;;;;;;;6211643;23;20140;-75
2021/10/27 07:49:29;;;;;;;13.13;4.90;;;;;;;;;;6211275;23;20553;-76
2021/10/27 07:51:54;;;;;;;15.40;5.90;;;;;;;;;;6184997;23;20262;-76
2021/10/27 07:54:19;;;;;;;18.97;6.07;;;;;;;;;;6185051;23;20176;-77
2021/10/27 07:56:47;;;;;;;11.60;6.10;;;;;;;;;;6185468;23;20226;-76
2021/10/27 07:59:12;;;;;;;15.10;5.90;;;;;;;;;;6209806;23;20148;-76
2021/10/27 08:01:37;;;;;;;13.10;6.00;;;;;;;;;;6185017;23;20387;-76
2021/10/27 08:04:04;;;;;;;13.37;5.40;;;;;;;;;;6210045;23;20222;-76
2021/10/27 08:06:29;;;;;;;17.43;6.97;;;;;;;;;;6184108;23;20147;-76
2021/10/27 08:08:55;;;;;;;13.73;5.87;;;;;;;;;;6210709;23;20363;-77
2021/10/27 08:11:20;;;;;;;14.83;6.80;;;;;;;;;;6211680;23;20223;-78
2021/10/27 08:13:46;;;;;;;15.20;7.00;;;;;;;;;;6182783;23;20500;-76
2021/10/27 08:16:11;;;;;;;17.40;7.93;;;;;;;;;;6212366;23;20275;-76
2021/10/27 08:18:37;;;;;;;15.20;7.10;;;;;;;;;;6184440;23;20152;-75
2021/10/27 08:21:03;;;;;;;12.50;6.20;;;;;;;;;;6212040;23;20180;-76
2021/10/27 08:23:32;;;;;;;15.47;7.10;;;;;;;;;;6210869;23;20425;-75
2021/10/27 08:26:01;;;;;;;11.80;6.80;;;;;;;;;;6211829;23;20151;-77
2021/10/27 08:28:37;;;;;;;20.03;7.23;;;;;;;;;;6210808;23;20367;-75
2021/10/27 08:35:55;;;;;;;16.07;8.00;;;;;;;;;;6212039;23;20495;-76
2021/10/27 08:38:21;;;;;;;19.60;7.37;;;;;;;;;;6211682;23;20363;-77
2021/10/27 08:40:46;;;;;;;15.23;7.20;;;;;;;;;;6209755;23;20147;-76
2021/10/27 08:43:12;;;;;;;14.23;8.13;;;;;;;;;;6211390;23;20151;-76
2021/10/27 08:45:38;;;;;;;11.37;7.70;;;;;;;;;;6211797;23;20656;-76
2021/10/27 08:48:04;;;;;;;13.07;7.70;;;;;;;;;;6209150;23;20530;-76
2021/10/27 08:50:29;;;;;;;13.50;8.57;;;;;;;;;;6210627;23;20364;-76
2021/10/27 08:52:54;;;;;;;14.27;7.80;;;;;;;;;;6210975;23;20367;-76
2021/10/27 08:55:20;;;;;;;14.30;9.47;;;;;;;;;;6211304;23;20174;-76
2021/10/27 08:57:48;;;;;;;15.20;8.30;;;;;;;;;;6211786;23;20626;-76
2021/10/27 09:00:17;;;;;;;15.10;9.43;;;;;;;;;;6211548;23;20148;-76
2021/10/27 09:03:02;;;;;;;13.33;8.73;;;;;;;;;;6210426;23;20697;-76
2021/10/27 09:05:38;;;;;;;11.03;9.17;;;;;;;;;;6207436;23;20431;-76
2021/10/27 09:17:02;;;;;;;13.73;8.97;;;;;;;;;;6219199;23;20365;-76
2021/10/27 09:39:25;;;;;;;11.93;7.37;;;;;;;;;;6207767;23;20346;-75
2021/10/27 09:42:36;;;;;;;15.40;8.77;;;;;;;;;;6211762;23;20579;-76
2021/10/27 09:45:06;;;;;;;15.23;7.60;;;;;;;;;;6206229;23;21117;-75
2021/10/27 10:06:23;;;;;;;13.90;6.67;;;;;;;;;;6213261;23;20721;-74
2021/10/27 10:08:49;;;;;;;12.87;5.90;;;;;;;;;;6213586;23;20694;-74
2021/10/27 10:11:15;;;;;;;11.80;5.57;;;;;;;;;;6213244;23;20356;-77
2021/10/27 10:13:40;;;;;;;8.37;5.40;;;;;;;;;;6212744;23;20140;-74
2021/10/27 10:16:08;;;;;;;9.50;6.17;;;;;;;;;;6212051;23;20144;-75
2021/10/27 10:18:37;;;;;;;7.50;5.67;;;;;;;;;;6213544;23;20151;-75
2021/10/27 10:21:02;;;;;;;11.27;6.47;;;;;;;;;;6213442;23;20390;-75
2021/10/27 10:23:27;;;;;;;12.83;5.70;;;;;;;;;;6212113;23;20359;-75
2021/10/27 10:25:54;;;;;;;14.10;6.00;;;;;;;;;;6213031;23;20210;-75
2021/10/27 10:28:24;;;;;;;10.60;6.20;;;;;;;;;;6213110;23;20214;-75
2021/10/27 10:30:52;;;;;;;10.93;5.80;;;;;;;;;;6212839;23;20391;-75
2021/10/27 10:33:18;;;;;;;9.37;5.80;;;;;;;;;;6212839;23;20359;-75
2021/10/27 10:36:12;;;;;;;9.13;5.20;;;;;;;;;;6211549;23;20383;-76
2021/10/27 10:44:35;;;;;;;11.20;5.33;;;;;;;;;;6210929;23;20481;-75
2021/10/27 11:01:56;;;;;;;11.17;5.20;;;;;;;;;;6222220;23;20837;-75
2021/10/27 11:26:29;;;;;;;11.23;3.60;;;;;;;;;;6222736;23;20400;-76
2021/10/27 11:37:38;;;;;;;6.30;3.20;;;;;;;;;;6105372;23;20378;-76
2021/10/27 11:40:13;;;;;;;9.30;3.30;;;;;;;;;;6211609;23;20810;-75
2021/10/27 11:42:53;;;;;;;9.00;3.57;;;;;;;;;;6211694;23;20354;-75
2021/10/27 11:47:59;;;;;;;6.93;3.37;;;;;;;;;;6222212;23;20351;-75
2021/10/27 11:50:30;;;;;;;6.27;2.80;;;;;;;;;;6185132;23;20383;-76
2021/10/27 11:52:55;;;;;;;6.37;2.87;;;;;;;;;;6210923;23;20413;-76
2021/10/27 11:55:22;;;;;;;5.20;2.33;;;;;;;;;;6210437;23;20399;-76
2021/10/27 11:57:51;;;;;;;10.10;3.30;;;;;;;;;;6210971;23;20156;-76
2021/10/27 12:00:37;;;;;;;9.80;3.50;;;;;;;;;;6209916;23;20367;-75
2021/10/27 12:03:15;;;;;;;10.90;2.97;;;;;;;;;;6209670;23;20725;-75
2021/10/27 12:08:21;;;;;;;8.30;3.30;;;;;;;;;;6212147;23;20371;-75
2021/10/27 12:11:12;;;;;;;12.43;3.27;;;;;;;;;;6211552;23;20685;-76
2021/10/27 12:13:52;;;;;;;6.83;2.70;;;;;;;;;;6209367;23;20371;-75
2021/10/27 12:19:07;;;;;;;5.83;3.07;;;;;;;;;;6220801;23;20393;-76
2021/10/27 12:21:35;;;;;;;10.23;2.60;;;;;;;;;;6210106;23;20829;-75
2021/10/27 12:24:02;;;;;;;7.80;2.73;;;;;;;;;;6208916;23;20513;-76
2021/10/27 12:26:28;;;;;;;8.43;2.47;;;;;;;;;;6210984;23;20363;-75
2021/10/27 12:29:09;;;;;;;8.20;2.63;;;;;;;;;;6209842;23;20373;-75
2021/10/27 12:31:34;;;;;;;9.77;2.53;;;;;;;;;;6210785;23;20516;-75
2021/10/27 12:34:00;;;;;;;7.70;2.43;;;;;;;;;;6209620;22;20440;-75
2021/10/27 12:36:28;;;;;;;6.43;2.10;;;;;;;;;;6240882;23;20543;-75
2021/10/27 12:39:32;;;;;;;6.83;2.53;;;;;;;;;;6242108;23;20911;-76
2021/10/27 12:42:07;;;;;;;5.83;2.40;;;;;;;;;;6219616;23;20465;-76
2021/10/27 12:44:33;;;;;;;6.40;2.13;;;;;;;;;;6229043;23;20410;-75
2021/10/27 12:47:12;;;;;;;5.33;2.10;;;;;;;;;;6184880;23;20384;-75
2021/10/27 12:49:41;;;;;;;12.73;2.63;;;;;;;;;;6212341;23;20366;-77
2021/10/27 12:52:37;;;;;;;5.43;2.10;;;;;;;;;;6185320;23;20450;-75
2021/10/27 12:55:09;;;;;;;5.83;1.90;;;;;;;;;;6198637;23;20482;-76
2021/10/27 12:57:43;;;;;;;4.70;1.97;;;;;;;;;;6185449;23;20441;-76
2021/10/27 13:00:16;;;;;;;6.27;1.97;;;;;;;;;;6212306;23;20821;-76
2021/10/27 13:02:48;;;;;;;6.50;2.27;;;;;;;;;;6211305;23;20433;-76
2021/10/27 13:05:27;;;;;;;6.10;2.00;;;;;;;;;;6185164;23;20759;-76
2021/10/27 13:07:59;;;;;;;8.23;2.67;;;;;;;;;;6212012;23;20458;-76
2021/10/27 13:13:30;;;;;;;10.80;2.53;;;;;;;;;;6176726;23;20367;-76
2021/10/27 13:31:55;;;;;;;10.40;3.57;;;;;;;;;;6213563;23;20374;-76
2021/10/27 13:34:20;;;;;;;7.13;2.20;;;;;;;;;;6213204;23;20403;-76
2021/10/27 13:36:46;;;;;;;4.30;2.10;;;;;;;;;;6213667;23;20382;-76
2021/10/27 13:39:11;;;;;;;8.93;2.67;;;;;;;;;;6214136;23;20144;-75
2021/10/27 13:41:39;;;;;;;4.50;2.30;;;;;;;;;;6213950;23;20152;-76
2021/10/27 13:44:11;;;;;;;5.37;2.20;;;;;;;;;;6213396;23;20179;-76
2021/10/27 13:49:38;;;;;;;11.00;2.20;;;;;;;;;;6213614;23;20342;-75
2021/10/27 13:57:57;;;;;;;4.93;2.33;;;;;;;;;;6212017;23;20900;-75
2021/10/27 14:08:33;;;;;;;4.70;2.40;;;;;;;;;;6223590;23;20797;-76
2021/10/27 14:11:05;;;;;;;4.50;1.93;;;;;;;;;;6212262;23;20352;-76
2021/10/27 14:13:52;;;;;;;6.10;2.03;;;;;;;;;;6213188;23;20340;-76
2021/10/27 15:21:15;;;;;;;3.90;2.40;;;;;;;;;;6212896;23;20398;-75
2021/10/27 15:36:55;;;;;;;4.40;2.13;;;;;;;;;;6212986;23;20395;-76
2021/10/27 15:44:40;;;;;;;4.17;1.90;;;;;;;;;;6210093;23;20790;-75
2021/10/27 15:50:41;;;;;;;4.63;2.60;;;;;;;;;;6206129;23;20357;-75
2021/10/27 15:52:35;;;;;;;6.93;2.77;;;;;;;;;;6193545;23;20402;-75
2021/10/27 15:55:00;;;;;;;5.20;2.77;;;;;;;;;;6211006;23;20391;-75
2021/10/27 15:57:26;;;;;;;5.27;2.77;;;;;;;;;;6208189;23;20148;-74
2021/10/27 15:59:54;;;;;;;3.87;2.53;;;;;;;;;;6210440;23;20175;-75
2021/10/27 16:02:20;;;;;;;3.50;1.90;;;;;;;;;;6212007;23;20641;-75
2021/10/27 16:04:45;;;;;;;4.97;1.90;;;;;;;;;;6212560;23;20438;-76
2021/10/27 16:07:16;;;;;;;4.60;2.13;;;;;;;;;;6211349;23;20485;-74
2021/10/27 16:09:43;;;;;;;4.33;2.40;;;;;;;;;;6210095;23;20128;-75
2021/10/27 16:12:09;;;;;;;9.27;1.93;;;;;;;;;;6210824;23;20378;-76
2021/10/27 16:14:34;;;;;;;4.53;2.00;;;;;;;;;;6210584;23;20387;-76
2021/10/27 16:17:00;;;;;;;4.97;2.03;;;;;;;;;;6211213;23;20152;-75
2021/10/27 16:19:25;;;;;;;7.90;1.83;;;;;;;;;;6211827;23;20148;-75
2021/10/27 16:21:50;;;;;;;6.60;1.83;;;;;;;;;;6211908;23;20151;-75
2021/10/27 16:24:16;;;;;;;8.80;2.43;;;;;;;;;;6210990;23;20199;-75
2021/10/27 16:26:41;;;;;;;2.87;1.77;;;;;;;;;;6211395;23;20151;-76
2021/10/27 16:29:06;;;;;;;3.40;1.60;;;;;;;;;;6212345;23;20194;-76
2021/10/27 16:31:32;;;;;;;5.93;2.10;;;;;;;;;;6212209;23;20219;-75
2021/10/27 16:33:58;;;;;;;6.10;2.40;;;;;;;;;;6211103;23;20233;-75
2021/10/27 16:36:23;;;;;;;4.37;1.90;;;;;;;;;;6212261;23;20223;-75
2021/10/27 16:38:49;;;;;;;6.57;2.03;;;;;;;;;;6212324;23;20676;-75
2021/10/27 16:41:14;;;;;;;4.10;1.60;;;;;;;;;;6212003;23;20154;-76
2021/10/27 16:43:42;;;;;;;4.43;2.13;;;;;;;;;;6210959;23;20480;-75
2021/10/27 16:46:07;;;;;;;6.87;1.83;;;;;;;;;;6211306;23;20144;-76
2021/10/27 16:48:32;;;;;;;5.47;1.70;;;;;;;;;;6211741;23;20754;-76
2021/10/27 16:50:58;;;;;;;5.27;1.90;;;;;;;;;;6212447;23;20144;-76
2021/10/27 16:53:27;;;;;;;4.30;1.63;;;;;;;;;;6185192;23;20152;-76
2021/10/27 16:55:56;;;;;;;2.33;1.33;;;;;;;;;;6185275;23;20254;-75
2021/10/27 16:58:24;;;;;;;6.07;1.90;;;;;;;;;;6212497;23;20751;-75
2021/10/27 17:00:49;;;;;;;7.60;1.60;;;;;;;;;;6211784;23;20391;-75
2021/10/27 17:03:14;;;;;;;8.90;2.03;;;;;;;;;;6211427;23;20417;-75
2021/10/27 17:05:40;;;;;;;10.13;2.40;;;;;;;;;;6211677;23;20199;-74
2021/10/27 17:08:07;;;;;;;6.03;2.00;;;;;;;;;;6212072;23;20151;-75
2021/10/27 17:10:32;;;;;;;4.53;1.80;;;;;;;;;;6211598;23;20150;-75
2021/10/27 17:12:57;;;;;;;5.30;2.00;;;;;;;;;;6211280;23;20359;-74
2021/10/27 17:15:23;;;;;;;8.90;2.63;;;;;;;;;;6210709;23;20236;-74
2021/10/27 17:17:48;;;;;;;8.03;2.43;;;;;;;;;;6211448;23;20174;-74
2021/10/27 17:20:15;;;;;;;6.30;2.10;;;;;;;;;;6209830;23;20156;-73
2021/10/27 17:22:42;;;;;;;6.33;1.87;;;;;;;;;;6210022;23;20493;-74
2021/10/27 17:25:09;;;;;;;4.23;1.97;;;;;;;;;;6211021;23;20411;-75
2021/10/27 17:27:37;;;;;;;3.43;1.73;;;;;;;;;;6185054;23;20382;-75
2021/10/27 17:30:03;;;;;;;4.70;2.30;;;;;;;;;;6210207;23;20369;-74
2021/10/27 17:32:28;;;;;;;6.37;1.93;;;;;;;;;;6210598;23;20370;-74
2021/10/27 17:34:54;;;;;;;5.13;1.80;;;;;;;;;;6210424;23;20418;-74
2021/10/27 17:37:19;;;;;;;4.50;1.87;;;;;;;;;;6211758;23;20159;-74
2021/10/27 17:39:44;;;;;;;7.17;2.03;;;;;;;;;;6210328;23;20273;-73
2021/10/27 17:42:16;;;;;;;8.90;2.80;;;;;;;;;;6211145;23;20154;-74
2021/10/27 17:44:42;;;;;;;5.40;2.73;;;;;;;;;;6210561;23;20179;-74
2021/10/27 17:47:11;;;;;;;4.57;2.10;;;;;;;;;;6211112;23;20395;-74
2021/10/27 17:49:49;;;;;;;4.67;2.60;;;;;;;;;;6211606;23;20363;-74
2021/10/27 17:52:24;;;;;;;8.20;2.90;;;;;;;;;;6211709;23;20486;-75
2021/10/27 18:00:06;;;;;;;9.50;2.40;;;;;;;;;;6222161;23;20374;-75
2021/10/27 18:02:34;;;;;;;6.87;2.43;;;;;;;;;;6211089;23;20370;-75
2021/10/27 18:04:59;;;;;;;2.80;1.80;;;;;;;;;;6213161;23;20771;-75
2021/10/27 18:07:27;;;;;;;4.53;1.93;;;;;;;;;;6212324;23;20367;-75
2021/10/27 18:09:53;;;;;;;3.80;2.10;;;;;;;;;;6213037;23;20492;-76
2021/10/27 18:12:22;;;;;;;4.63;2.50;;;;;;;;;;6213615;23;20368;-76
2021/10/27 18:14:47;;;;;;;6.87;2.77;;;;;;;;;;6211141;23;20175;-74
2021/10/27 18:17:17;;;;;;;5.03;2.43;;;;;;;;;;6212569;23;20371;-75
2021/10/27 18:20:26;;;;;;;4.60;2.87;;;;;;;;;;6213092;23;20526;-75
2021/10/27 18:41:06;;;;;;;5.27;2.97;;;;;;;;;;6213923;23;20374;-76
2021/10/27 18:43:31;;;;;;;6.20;2.70;;;;;;;;;;6186064;23;20227;-76
2021/10/27 18:45:59;;;;;;;4.97;2.70;;;;;;;;;;6212761;23;20443;-76
2021/10/27 18:48:25;;;;;;;6.07;3.13;;;;;;;;;;6213310;23;20614;-76
2021/10/27 18:51:01;;;;;;;7.63;3.63;;;;;;;;;;6213171;23;20370;-76
2021/10/27 18:53:35;;;;;;;7.60;4.10;;;;;;;;;;6213771;23;20128;-78
2021/10/27 18:58:39;;;;;;;4.10;3.27;;;;;;;;;;6213317;23;20410;-76
2021/10/27 19:01:11;;;;;;;7.40;4.33;;;;;;;;;;6214179;23;20139;-77
2021/10/27 19:11:32;;;;;;;11.33;4.67;;;;;;;;;;6213100;23;20429;-76
2021/10/27 19:15:03;;;;;;;9.60;5.27;;;;;;;;;;6210628;23;20394;-75
2021/10/27 19:16:52;;;;;;;9.70;6.83;;;;;;;;;;6187048;23;20371;-75
2021/10/27 19:19:18;;;;;;;16.97;6.67;;;;;;;;;;6211840;23;20369;-74
2021/10/27 19:21:43;;;;;;;11.00;7.90;;;;;;;;;;6211374;23;20148;-75
2021/10/27 19:24:15;;;;;;;8.37;6.27;;;;;;;;;;6212641;23;20171;-76